sensor_id;sensor_type;location;lat;lon;timestamp;pressure;altitude;pressure_sealevel;temperature;humidity
74230;BME280;62589;12.568;99.958;2023-02-15T00:01:38;100840.06;;;32.25;54.97
74230;BME280;62589;12.568;99.958;2023-02-15T00:04:05;100842.41;;;32.23;54.64
74230;BME280;62589;12.568;99.958;2023-02-15T00:06:33;100854.38;;;32.27;54.55
74230;BME280;62589;12.568;99.958;2023-02-15T00:09:00;100861.09;;;32.26;54.87
74230;BME280;62589;12.568;99.958;2023-02-15T00:11:27;100861.53;;;32.28;54.14
74230;BME280;62589;12.568;99.958;2023-02-15T00:14:10;100863.50;;;32.28;54.15
74230;BME280;62589;12.568;99.958;2023-02-15T00:16:40;100876.63;;;32.31;53.99
74230;BME280;62589;12.568;99.958;2023-02-15T00:19:07;100883.38;;;32.30;53.64
74230;BME280;62589;12.568;99.958;2023-02-15T00:21:35;100882.56;;;32.29;53.58
74230;BME280;62589;12.568;99.958;2023-02-15T00:24:03;100883.00;;;32.31;53.42
74230;BME280;62589;12.568;99.958;2023-02-15T00:26:30;100881.00;;;32.32;53.36
74230;BME280;62589;12.568;99.958;2023-02-15T00:28:57;100886.19;;;32.33;53.23
74230;BME280;62589;12.568;99.958;2023-02-15T00:31:29;100895.00;;;32.39;53.55
74230;BME280;62589;12.568;99.958;2023-02-15T00:34:04;100904.53;;;32.41;53.34
74230;BME280;62589;12.568;99.958;2023-02-15T00:36:31;100897.81;;;32.46;53.02
74230;BME280;62589;12.568;99.958;2023-02-15T00:38:58;100901.41;;;32.47;52.90
74230;BME280;62589;12.568;99.958;2023-02-15T00:41:25;100911.41;;;32.55;52.66
74230;BME280;62589;12.568;99.958;2023-02-15T00:43:51;100912.25;;;32.59;52.64
74230;BME280;62589;12.568;99.958;2023-02-15T00:46:17;100919.81;;;32.62;52.48
74230;BME280;62589;12.568;99.958;2023-02-15T00:48:44;100904.75;;;32.63;52.62
74230;BME280;62589;12.568;99.958;2023-02-15T00:51:10;100910.34;;;32.70;52.54
74230;BME280;62589;12.568;99.958;2023-02-15T00:53:37;100912.81;;;32.75;52.27
74230;BME280;62589;12.568;99.958;2023-02-15T00:56:03;100918.03;;;32.80;52.53
74230;BME280;62589;12.568;99.958;2023-02-15T00:58:30;100921.63;;;32.84;52.14
74230;BME280;62589;12.568;99.958;2023-02-15T01:01:04;100929.63;;;32.89;52.16
74230;BME280;62589;12.568;99.958;2023-02-15T01:03:31;100936.88;;;33.01;52.15
74230;BME280;62589;12.568;99.958;2023-02-15T01:05:58;100938.47;;;33.05;51.93
74230;BME280;62589;12.568;99.958;2023-02-15T01:08:24;100937.75;;;33.12;51.82
74230;BME280;62589;12.568;99.958;2023-02-15T01:10:51;100944.56;;;33.18;51.61
74230;BME280;62589;12.568;99.958;2023-02-15T01:13:17;100949.78;;;33.27;51.82
74230;BME280;62589;12.568;99.958;2023-02-15T01:15:44;100941.09;;;33.32;51.39
74230;BME280;62589;12.568;99.958;2023-02-15T01:18:11;100956.25;;;33.38;51.04
74230;BME280;62589;12.568;99.958;2023-02-15T01:20:39;100959.88;;;33.45;50.83
74230;BME280;62589;12.568;99.958;2023-02-15T01:23:08;100957.13;;;33.53;50.72
74230;BME280;62589;12.568;99.958;2023-02-15T01:25:35;100954.78;;;33.58;50.05
74230;BME280;62589;12.568;99.958;2023-02-15T01:28:02;100955.97;;;33.57;50.17
74230;BME280;62589;12.568;99.958;2023-02-15T01:30:29;100946.06;;;33.63;49.91
74230;BME280;62589;12.568;99.958;2023-02-15T01:32:55;100957.63;;;33.72;50.08
74230;BME280;62589;12.568;99.958;2023-02-15T01:35:22;100952.88;;;33.73;49.23
74230;BME280;62589;12.568;99.958;2023-02-15T01:37:48;100953.31;;;33.78;49.04
74230;BME280;62589;12.568;99.958;2023-02-15T01:40:16;100948.59;;;33.86;49.53
74230;BME280;62589;12.568;99.958;2023-02-15T01:42:44;100952.19;;;33.90;49.04
74230;BME280;62589;12.568;99.958;2023-02-15T01:45:24;100953.44;;;34.03;48.83
74230;BME280;62589;12.568;99.958;2023-02-15T01:48:02;100963.00;;;34.09;49.45
74230;BME280;62589;12.568;99.958;2023-02-15T01:50:33;100962.19;;;34.09;49.64
74230;BME280;62589;12.568;99.958;2023-02-15T01:53:27;100972.19;;;34.17;48.91
74230;BME280;62589;12.568;99.958;2023-02-15T01:56:02;100971.41;;;34.20;49.27
74230;BME280;62589;12.568;99.958;2023-02-15T01:58:32;100979.00;;;34.23;49.35
74230;BME280;62589;12.568;99.958;2023-02-15T02:01:01;100978.22;;;34.30;49.39
74230;BME280;62589;12.568;99.958;2023-02-15T02:03:50;100980.69;;;34.45;48.70
74230;BME280;62589;12.568;99.958;2023-02-15T02:06:18;100981.03;;;34.37;48.78
74230;BME280;62589;12.568;99.958;2023-02-15T02:08:45;100992.22;;;34.55;48.00
74230;BME280;62589;12.568;99.958;2023-02-15T02:11:13;100986.25;;;34.56;48.11
74230;BME280;62589;12.568;99.958;2023-02-15T02:13:43;100995.03;;;34.58;47.65
74230;BME280;62589;12.568;99.958;2023-02-15T02:19:33;101001.91;;;34.86;47.26
74230;BME280;62589;12.568;99.958;2023-02-15T02:34:27;101027.84;;;35.29;45.22
74230;BME280;62589;12.568;99.958;2023-02-15T02:37:24;101046.56;;;35.39;45.28
74230;BME280;62589;12.568;99.958;2023-02-15T02:40:13;101039.78;;;35.40;45.30
74230;BME280;62589;12.568;99.958;2023-02-15T02:45:44;101054.94;;;35.60;45.03
74230;BME280;62589;12.568;99.958;2023-02-15T02:48:22;101054.53;;;35.69;44.97
74230;BME280;62589;12.568;99.958;2023-02-15T02:50:50;101061.31;;;35.71;44.59
74230;BME280;62589;12.568;99.958;2023-02-15T02:53:17;101061.31;;;35.78;43.68
74230;BME280;62589;12.568;99.958;2023-02-15T02:55:51;101074.09;;;35.69;43.97
74230;BME280;62589;12.568;99.958;2023-02-15T02:58:39;101062.91;;;35.90;43.30
74230;BME280;62589;12.568;99.958;2023-02-15T03:01:25;101068.47;;;35.97;43.46
74230;BME280;62589;12.568;99.958;2023-02-15T03:03:56;101065.69;;;35.90;43.86
74230;BME280;62589;12.568;99.958;2023-02-15T03:06:32;101064.44;;;36.09;42.99
74230;BME280;62589;12.568;99.958;2023-02-15T03:09:11;101062.00;;;36.18;42.96
74230;BME280;62589;12.568;99.958;2023-02-15T03:11:47;101059.59;;;36.24;42.89
74230;BME280;62589;12.568;99.958;2023-02-15T03:14:16;101064.41;;;36.30;43.02
74230;BME280;62589;12.568;99.958;2023-02-15T03:16:47;101070.38;;;36.36;43.84
74230;BME280;62589;12.568;99.958;2023-02-15T03:19:27;101065.09;;;36.52;43.64
74230;BME280;62589;12.568;99.958;2023-02-15T03:22:03;101069.50;;;36.53;43.74
74230;BME280;62589;12.568;99.958;2023-02-15T03:27:36;101074.72;;;36.47;44.26
74230;BME280;62589;12.568;99.958;2023-02-15T03:30:10;101073.91;;;36.43;44.36
74230;BME280;62589;12.568;99.958;2023-02-15T03:32:37;101075.81;;;36.61;44.17
74230;BME280;62589;12.568;99.958;2023-02-15T03:35:06;101081.16;;;36.37;44.22
74230;BME280;62589;12.568;99.958;2023-02-15T03:37:47;101076.31;;;36.45;44.45
74230;BME280;62589;12.568;99.958;2023-02-15T03:40:30;101079.94;;;36.38;44.31
74230;BME280;62589;12.568;99.958;2023-02-15T03:46:16;101065.94;;;36.45;44.38
74230;BME280;62589;12.568;99.958;2023-02-15T03:48:51;101071.56;;;36.35;44.40
74230;BME280;62589;12.568;99.958;2023-02-15T03:51:21;101078.38;;;36.37;44.49
74230;BME280;62589;12.568;99.958;2023-02-15T03:54:27;101075.13;;;36.42;44.55
74230;BME280;62589;12.568;99.958;2023-02-15T03:57:16;101070.78;;;36.34;45.03
74230;BME280;62589;12.568;99.958;2023-02-15T03:59:55;101066.81;;;36.25;45.10
74230;BME280;62589;12.568;99.958;2023-02-15T04:02:39;101063.25;;;36.13;45.17
74230;BME280;62589;12.568;99.958;2023-02-15T04:05:11;101068.03;;;36.09;45.51
74230;BME280;62589;12.568;99.958;2023-02-15T04:07:37;101059.25;;;36.04;45.90
74230;BME280;62589;12.568;99.958;2023-02-15T04:10:04;101047.34;;;35.93;46.17
74230;BME280;62589;12.568;99.958;2023-02-15T04:12:42;101057.72;;;35.85;46.46
74230;BME280;62589;12.568;99.958;2023-02-15T04:15:12;101050.16;;;35.78;47.31
74230;BME280;62589;12.568;99.958;2023-02-15T04:17:50;101051.75;;;35.72;47.57
74230;BME280;62589;12.568;99.958;2023-02-15T04:20:16;101052.94;;;35.64;48.28
74230;BME280;62589;12.568;99.958;2023-02-15T04:22:54;101052.13;;;35.78;48.52
74230;BME280;62589;12.568;99.958;2023-02-15T04:25:33;101045.34;;;35.79;48.83
74230;BME280;62589;12.568;99.958;2023-02-15T04:27:59;101039.75;;;35.83;48.47
74230;BME280;62589;12.568;99.958;2023-02-15T04:30:26;101049.28;;;36.03;47.97
74230;BME280;62589;12.568;99.958;2023-02-15T04:32:54;101044.50;;;36.00;47.60
74230;BME280;62589;12.568;99.958;2023-02-15T04:35:22;101039.69;;;36.11;47.28
74230;BME280;62589;12.568;99.958;2023-02-15T04:37:48;101036.09;;;36.10;47.19
74230;BME280;62589;12.568;99.958;2023-02-15T04:40:16;101035.63;;;36.23;46.67
74230;BME280;62589;12.568;99.958;2023-02-15T04:42:43;101032.03;;;36.22;45.64
74230;BME280;62589;12.568;99.958;2023-02-15T04:45:09;101028.78;;;36.41;45.19
74230;BME280;62589;12.568;99.958;2023-02-15T04:47:36;101015.97;;;36.51;46.55
74230;BME280;62589;12.568;99.958;2023-02-15T04:50:02;101018.66;;;36.65;47.33
74230;BME280;62589;12.568;99.958;2023-02-15T04:52:29;101006.69;;;36.72;47.13
74230;BME280;62589;12.568;99.958;2023-02-15T04:54:55;101012.97;;;36.87;47.22
74230;BME280;62589;12.568;99.958;2023-02-15T04:57:22;101013.28;;;36.99;46.58
74230;BME280;62589;12.568;99.958;2023-02-15T04:59:48;101015.97;;;37.10;46.41
74230;BME280;62589;12.568;99.958;2023-02-15T05:02:15;101034.31;;;37.18;46.73
74230;BME280;62589;12.568;99.958;2023-02-15T05:04:41;101029.88;;;37.24;46.75
74230;BME280;62589;12.568;99.958;2023-02-15T05:07:07;101039.81;;;37.32;46.42
74230;BME280;62589;12.568;99.958;2023-02-15T05:09:34;101054.56;;;37.40;47.26
74230;BME280;62589;12.568;99.958;2023-02-15T05:12:00;101052.19;;;37.38;47.08
74230;BME280;62589;12.568;99.958;2023-02-15T05:14:27;101060.19;;;37.36;46.48
74230;BME280;62589;12.568;99.958;2023-02-15T05:16:53;101061.50;;;37.17;45.00
74230;BME280;62589;12.568;99.958;2023-02-15T05:19:20;101054.47;;;36.99;43.74
74230;BME280;62589;12.568;99.958;2023-02-15T05:21:46;101063.00;;;36.74;43.32
74230;BME280;62589;12.568;99.958;2023-02-15T05:24:13;101067.03;;;36.59;43.43
74230;BME280;62589;12.568;99.958;2023-02-15T05:26:51;101063.94;;;36.42;43.71
74230;BME280;62589;12.568;99.958;2023-02-15T05:29:29;101051.63;;;36.26;43.40
74230;BME280;62589;12.568;99.958;2023-02-15T05:31:55;101051.25;;;36.13;43.88
74230;BME280;62589;12.568;99.958;2023-02-15T05:34:22;101056.06;;;36.05;44.61
74230;BME280;62589;12.568;99.958;2023-02-15T05:36:48;101042.53;;;35.93;45.02
74230;BME280;62589;12.568;99.958;2023-02-15T05:39:14;101037.75;;;35.90;45.11
74230;BME280;62589;12.568;99.958;2023-02-15T05:41:41;101030.16;;;35.94;45.42
74230;BME280;62589;12.568;99.958;2023-02-15T05:44:07;101035.72;;;36.01;45.63
74230;BME280;62589;12.568;99.958;2023-02-15T05:46:34;101047.28;;;36.07;45.72
74230;BME280;62589;12.568;99.958;2023-02-15T05:49:00;101062.88;;;36.01;45.10
74230;BME280;62589;12.568;99.958;2023-02-15T05:51:26;101065.66;;;36.01;45.47
74230;BME280;62589;12.568;99.958;2023-02-15T05:53:53;101081.25;;;35.95;45.60
74230;BME280;62589;12.568;99.958;2023-02-15T05:56:19;101077.28;;;35.85;45.86
74230;BME280;62589;12.568;99.958;2023-02-15T05:58:46;101082.88;;;35.74;45.91
74230;BME280;62589;12.568;99.958;2023-02-15T06:01:15;101080.47;;;35.66;46.01
74230;BME280;62589;12.568;99.958;2023-02-15T06:03:43;101091.66;;;35.41;45.61
74230;BME280;62589;12.568;99.958;2023-02-15T06:06:10;101094.00;;;35.18;44.06
74230;BME280;62589;12.568;99.958;2023-02-15T06:08:37;101070.03;;;34.95;43.93
74230;BME280;62589;12.568;99.958;2023-02-15T06:11:04;101084.78;;;34.82;45.10
74230;BME280;62589;12.568;99.958;2023-02-15T06:13:31;101079.84;;;34.46;46.33
74230;BME280;62589;12.568;99.958;2023-02-15T06:15:58;101075.00;;;34.29;47.27
74230;BME280;62589;12.568;99.958;2023-02-15T06:18:25;101058.16;;;34.15;48.35
74230;BME280;62589;12.568;99.958;2023-02-15T06:20:51;101058.47;;;33.96;49.55
74230;BME280;62589;12.568;99.958;2023-02-15T06:23:18;101064.94;;;33.56;48.80
74230;BME280;62589;12.568;99.958;2023-02-15T06:25:45;101059.56;;;33.33;48.86
74230;BME280;62589;12.568;99.958;2023-02-15T06:28:12;101058.75;;;33.29;47.92
74230;BME280;62589;12.568;99.958;2023-02-15T06:30:39;101067.34;;;33.17;48.34
74230;BME280;62589;12.568;99.958;2023-02-15T06:33:05;101067.50;;;32.90;49.62
74230;BME280;62589;12.568;99.958;2023-02-15T06:35:32;101063.06;;;32.82;50.55
74230;BME280;62589;12.568;99.958;2023-02-15T06:37:58;101067.19;;;32.65;50.90
74230;BME280;62589;12.568;99.958;2023-02-15T06:40:25;101059.59;;;32.59;51.55
74230;BME280;62589;12.568;99.958;2023-02-15T06:42:51;101046.34;;;32.49;51.48
74230;BME280;62589;12.568;99.958;2023-02-15T06:45:17;101051.63;;;32.57;51.20
74230;BME280;62589;12.568;99.958;2023-02-15T06:47:44;101057.00;;;32.43;50.78
74230;BME280;62589;12.568;99.958;2023-02-15T06:50:11;101047.94;;;32.50;50.47
74230;BME280;62589;12.568;99.958;2023-02-15T06:52:37;101052.22;;;32.40;50.77
74230;BME280;62589;12.568;99.958;2023-02-15T06:55:04;101055.47;;;32.49;51.15
74230;BME280;62589;12.568;99.958;2023-02-15T06:57:30;101053.13;;;32.51;50.92
74230;BME280;62589;12.568;99.958;2023-02-15T06:59:59;101049.94;;;32.49;50.65
74230;BME280;62589;12.568;99.958;2023-02-15T07:02:25;101059.91;;;32.54;50.33
74230;BME280;62589;12.568;99.958;2023-02-15T07:04:52;101042.81;;;32.52;50.07
74230;BME280;62589;12.568;99.958;2023-02-15T07:07:18;101040.88;;;32.56;49.88
74230;BME280;62589;12.568;99.958;2023-02-15T07:09:45;101039.28;;;32.55;49.90
74230;BME280;62589;12.568;99.958;2023-02-15T07:12:11;101029.66;;;32.49;48.68
74230;BME280;62589;12.568;99.958;2023-02-15T07:14:49;101018.22;;;32.54;49.74
74230;BME280;62589;12.568;99.958;2023-02-15T07:17:16;101018.59;;;32.52;49.93
74230;BME280;62589;12.568;99.958;2023-02-15T07:19:43;101013.50;;;32.58;50.62
74230;BME280;62589;12.568;99.958;2023-02-15T07:22:09;101010.38;;;32.63;50.93
74230;BME280;62589;12.568;99.958;2023-02-15T07:24:36;101007.84;;;32.51;52.25
74230;BME280;62589;12.568;99.958;2023-02-15T07:27:03;101014.25;;;32.55;52.34
74230;BME280;62589;12.568;99.958;2023-02-15T07:29:31;101000.69;;;32.50;52.75
74230;BME280;62589;12.568;99.958;2023-02-15T07:31:58;100987.69;;;32.57;53.40
74230;BME280;62589;12.568;99.958;2023-02-15T07:34:25;100982.84;;;32.51;54.13
74230;BME280;62589;12.568;99.958;2023-02-15T07:36:51;100983.13;;;32.38;53.63
74230;BME280;62589;12.568;99.958;2023-02-15T07:39:19;100983.13;;;32.38;53.92
74230;BME280;62589;12.568;99.958;2023-02-15T07:41:46;100977.88;;;32.33;54.48
74230;BME280;62589;12.568;99.958;2023-02-15T07:44:14;100974.34;;;32.36;55.00
74230;BME280;62589;12.568;99.958;2023-02-15T07:46:41;100966.03;;;32.36;54.82
74230;BME280;62589;12.568;99.958;2023-02-15T07:49:08;100970.41;;;32.37;55.65
74230;BME280;62589;12.568;99.958;2023-02-15T07:51:34;100963.56;;;32.31;55.63
74230;BME280;62589;12.568;99.958;2023-02-15T07:54:01;100966.91;;;32.48;55.34
74230;BME280;62589;12.568;99.958;2023-02-15T07:56:27;100961.81;;;32.53;55.32
74230;BME280;62589;12.568;99.958;2023-02-15T07:58:53;100967.69;;;32.44;54.74
74230;BME280;62589;12.568;99.958;2023-02-15T08:01:31;100962.44;;;32.36;54.41
74230;BME280;62589;12.568;99.958;2023-02-15T08:03:59;100954.06;;;32.32;53.78
74230;BME280;62589;12.568;99.958;2023-02-15T08:06:28;100952.09;;;32.33;53.83
74230;BME280;62589;12.568;99.958;2023-02-15T08:08:54;100957.03;;;32.17;53.62
74230;BME280;62589;12.568;99.958;2023-02-15T08:11:23;100958.31;;;32.23;53.81
74230;BME280;62589;12.568;99.958;2023-02-15T08:14:18;100948.78;;;32.24;53.35
74230;BME280;62589;12.568;99.958;2023-02-15T08:16:53;100951.34;;;32.06;53.59
74230;BME280;62589;12.568;99.958;2023-02-15T08:19:27;100950.16;;;32.07;53.63
74230;BME280;62589;12.568;99.958;2023-02-15T08:21:56;100944.69;;;32.14;54.27
74230;BME280;62589;12.568;99.958;2023-02-15T08:24:24;100949.59;;;32.24;53.65
74230;BME280;62589;12.568;99.958;2023-02-15T08:26:52;100935.19;;;32.15;53.90
74230;BME280;62589;12.568;99.958;2023-02-15T08:29:21;100930.81;;;32.14;53.18
74230;BME280;62589;12.568;99.958;2023-02-15T08:31:50;100928.25;;;32.02;54.23
74230;BME280;62589;12.568;99.958;2023-02-15T08:34:19;100920.03;;;32.09;53.96
74230;BME280;62589;12.568;99.958;2023-02-15T08:36:46;100922.81;;;32.09;54.10
74230;BME280;62589;12.568;99.958;2023-02-15T08:39:14;100912.06;;;32.07;54.29
74230;BME280;62589;12.568;99.958;2023-02-15T08:41:46;100922.06;;;32.12;54.00
74230;BME280;62589;12.568;99.958;2023-02-15T08:44:13;100913.75;;;32.16;54.08
74230;BME280;62589;12.568;99.958;2023-02-15T08:46:42;100915.44;;;32.20;53.92
74230;BME280;62589;12.568;99.958;2023-02-15T08:49:12;100912.72;;;32.27;54.01
74230;BME280;62589;12.568;99.958;2023-02-15T08:51:39;100923.91;;;32.34;54.22
74230;BME280;62589;12.568;99.958;2023-02-15T08:54:08;100912.81;;;32.34;54.30
74230;BME280;62589;12.568;99.958;2023-02-15T08:56:37;100914.03;;;32.37;53.70
74230;BME280;62589;12.568;99.958;2023-02-15T08:59:04;100918.44;;;32.41;53.15
74230;BME280;62589;12.568;99.958;2023-02-15T09:01:33;100918.88;;;32.47;52.71
74230;BME280;62589;12.568;99.958;2023-02-15T09:04:02;100926.44;;;32.50;53.15
74230;BME280;62589;12.568;99.958;2023-02-15T09:06:30;100930.88;;;32.55;52.73
74230;BME280;62589;12.568;99.958;2023-02-15T09:08:56;100946.03;;;32.61;52.68
74230;BME280;62589;12.568;99.958;2023-02-15T09:11:28;100929.34;;;32.61;52.81
74230;BME280;62589;12.568;99.958;2023-02-15T09:13:58;100944.50;;;32.70;52.72
74230;BME280;62589;12.568;99.958;2023-02-15T09:16:27;100943.81;;;32.77;52.57
74230;BME280;62589;12.568;99.958;2023-02-15T09:18:55;100946.63;;;32.81;51.87
74230;BME280;62589;12.568;99.958;2023-02-15T09:21:24;100951.03;;;32.85;51.78
74230;BME280;62589;12.568;99.958;2023-02-15T09:23:54;100949.50;;;32.91;51.62
74230;BME280;62589;12.568;99.958;2023-02-15T09:26:23;100940.75;;;32.89;51.50
74230;BME280;62589;12.568;99.958;2023-02-15T09:28:55;100943.94;;;32.91;51.92
74230;BME280;62589;12.568;99.958;2023-02-15T09:31:24;100932.00;;;32.91;51.59
74230;BME280;62589;12.568;99.958;2023-02-15T09:33:51;100942.03;;;32.99;51.11
74230;BME280;62589;12.568;99.958;2023-02-15T09:36:24;100937.25;;;32.99;50.89
74230;BME280;62589;12.568;99.958;2023-02-15T09:38:58;100929.72;;;33.00;51.13
74230;BME280;62589;12.568;99.958;2023-02-15T09:44:41;100938.47;;;33.05;50.26
74230;BME280;62589;12.568;99.958;2023-02-15T09:50:25;100926.16;;;33.06;50.07
74230;BME280;62589;12.568;99.958;2023-02-15T09:53:17;100931.34;;;33.04;49.53
74230;BME280;62589;12.568;99.958;2023-02-15T09:56:07;100930.97;;;33.09;49.56
74230;BME280;62589;12.568;99.958;2023-02-15T10:02:05;100942.47;;;33.08;49.31
74230;BME280;62589;12.568;99.958;2023-02-15T10:07:53;100942.88;;;33.10;50.18
74230;BME280;62589;12.568;99.958;2023-02-15T10:10:48;100942.50;;;33.11;49.84
74230;BME280;62589;12.568;99.958;2023-02-15T10:13:36;100939.31;;;33.09;49.37
74230;BME280;62589;12.568;99.958;2023-02-15T10:16:37;100944.09;;;33.12;48.84
74230;BME280;62589;12.568;99.958;2023-02-15T10:19:37;100939.31;;;33.09;48.79
74230;BME280;62589;12.568;99.958;2023-02-15T10:25:18;100937.72;;;33.08;48.80
74230;BME280;62589;12.568;99.958;2023-02-15T10:27:49;100926.97;;;33.07;48.51
74230;BME280;62589;12.568;99.958;2023-02-15T10:30:29;100929.75;;;33.07;48.89
74230;BME280;62589;12.568;99.958;2023-02-15T10:33:07;100928.97;;;33.10;49.03
74230;BME280;62589;12.568;99.958;2023-02-15T10:36:02;100926.25;;;33.17;49.42
74230;BME280;62589;12.568;99.958;2023-02-15T10:47:52;100937.38;;;33.17;48.97
74230;BME280;62589;12.568;99.958;2023-02-15T10:50:43;100948.56;;;33.21;48.59
74230;BME280;62589;12.568;99.958;2023-02-15T10:56:16;100962.47;;;33.21;48.60
74230;BME280;62589;12.568;99.958;2023-02-15T10:59:07;100969.63;;;33.22;48.95
74230;BME280;62589;12.568;99.958;2023-02-15T11:02:01;100965.25;;;33.21;48.77
74230;BME280;62589;12.568;99.958;2023-02-15T11:04:43;100969.56;;;33.15;48.40
74230;BME280;62589;12.568;99.958;2023-02-15T11:07:23;100977.56;;;33.20;48.66
74230;BME280;62589;12.568;99.958;2023-02-15T11:12:44;100969.22;;;33.20;48.06
74230;BME280;62589;12.568;99.958;2023-02-15T11:15:25;100958.84;;;33.17;48.21
74230;BME280;62589;12.568;99.958;2023-02-15T11:18:14;100962.03;;;33.19;48.48
74230;BME280;62589;12.568;99.958;2023-02-15T11:21:04;100974.34;;;33.18;48.31
74230;BME280;62589;12.568;99.958;2023-02-15T11:23:35;100967.19;;;33.17;48.48
74230;BME280;62589;12.568;99.958;2023-02-15T11:26:14;100967.97;;;33.13;48.08
74230;BME280;62589;12.568;99.958;2023-02-15T11:31:44;100969.94;;;33.13;48.19
74230;BME280;62589;12.568;99.958;2023-02-15T11:34:29;100970.38;;;33.15;48.30
74230;BME280;62589;12.568;99.958;2023-02-15T11:37:08;100975.50;;;33.13;48.77
74230;BME280;62589;12.568;99.958;2023-02-15T11:39:37;100980.66;;;33.11;48.42
74230;BME280;62589;12.568;99.958;2023-02-15T11:42:13;100980.28;;;33.12;48.79
74230;BME280;62589;12.568;99.958;2023-02-15T11:45:02;100987.09;;;33.19;48.81
74230;BME280;62589;12.568;99.958;2023-02-15T11:47:31;100989.41;;;33.13;48.83
74230;BME280;62589;12.568;99.958;2023-02-15T11:49:57;100981.00;;;33.06;48.55
74230;BME280;62589;12.568;99.958;2023-02-15T11:52:24;100983.81;;;33.09;48.91
74230;BME280;62589;12.568;99.958;2023-02-15T11:54:51;100989.34;;;33.06;48.88
74230;BME280;62589;12.568;99.958;2023-02-15T11:57:38;100982.59;;;33.07;48.96
74230;BME280;62589;12.568;99.958;2023-02-15T12:03:28;100993.72;;;33.07;48.74
74230;BME280;62589;12.568;99.958;2023-02-15T12:06:02;101002.47;;;33.05;49.27
74230;BME280;62589;12.568;99.958;2023-02-15T12:08:38;101000.88;;;33.04;49.21
74230;BME280;62589;12.568;99.958;2023-02-15T12:11:12;101002.84;;;33.00;49.42
74230;BME280;62589;12.568;99.958;2023-02-15T12:14:00;101002.88;;;33.07;49.88
74230;BME280;62589;12.568;99.958;2023-02-15T12:16:29;100998.06;;;33.01;50.04
74230;BME280;62589;12.568;99.958;2023-02-15T12:19:00;101003.59;;;32.97;50.30
74230;BME280;62589;12.568;99.958;2023-02-15T12:21:38;101005.97;;;32.95;50.36
74230;BME280;62589;12.568;99.958;2023-02-15T12:24:27;101002.06;;;33.03;50.20
74230;BME280;62589;12.568;99.958;2023-02-15T12:27:14;101002.81;;;32.97;50.86
74230;BME280;62589;12.568;99.958;2023-02-15T12:29:47;101005.13;;;32.91;50.61
74230;BME280;62589;12.568;99.958;2023-02-15T12:32:24;101009.50;;;32.92;50.67
74230;BME280;62589;12.568;99.958;2023-02-15T12:34:55;101020.97;;;32.87;51.17
74230;BME280;62589;12.568;99.958;2023-02-15T12:37:29;101021.38;;;32.89;51.00
74230;BME280;62589;12.568;99.958;2023-02-15T12:39:59;101030.13;;;32.88;50.74
74230;BME280;62589;12.568;99.958;2023-02-15T12:42:28;101039.69;;;32.90;50.93
74230;BME280;62589;12.568;99.958;2023-02-15T12:45:22;101040.09;;;32.92;50.99
74230;BME280;62589;12.568;99.958;2023-02-15T12:48:09;101047.59;;;32.88;51.40
74230;BME280;62589;12.568;99.958;2023-02-15T12:50:36;101046.38;;;32.86;51.50
74230;BME280;62589;12.568;99.958;2023-02-15T12:53:30;101037.66;;;32.87;51.52
74230;BME280;62589;12.568;99.958;2023-02-15T12:56:00;101043.97;;;32.84;51.67
74230;BME280;62589;12.568;99.958;2023-02-15T12:58:29;101047.16;;;32.83;52.03
74230;BME280;62589;12.568;99.958;2023-02-15T13:01:17;101044.81;;;32.88;51.73
74230;BME280;62589;12.568;99.958;2023-02-15T13:04:21;101046.31;;;32.78;51.84
74230;BME280;62589;12.568;99.958;2023-02-15T13:06:50;101040.00;;;32.82;51.87
74230;BME280;62589;12.568;99.958;2023-02-15T13:09:35;101045.91;;;32.76;52.12
74230;BME280;62589;12.568;99.958;2023-02-15T13:12:24;101055.09;;;32.84;51.80
74230;BME280;62589;12.568;99.958;2023-02-15T13:14:57;101043.16;;;32.80;51.82
74230;BME280;62589;12.568;99.958;2023-02-15T13:17:28;101047.88;;;32.76;52.30
74230;BME280;62589;12.568;99.958;2023-02-15T13:20:16;101057.06;;;32.80;52.21
74230;BME280;62589;12.568;99.958;2023-02-15T13:22:46;101054.25;;;32.76;52.17
74230;BME280;62589;12.568;99.958;2023-02-15T13:25:22;101059.72;;;32.73;52.38
74230;BME280;62589;12.568;99.958;2023-02-15T13:27:57;101054.16;;;32.73;52.32
74230;BME280;62589;12.568;99.958;2023-02-15T13:30:30;101062.03;;;32.67;52.16
74230;BME280;62589;12.568;99.958;2023-02-15T13:36:21;101084.34;;;32.71;52.27
74230;BME280;62589;12.568;99.958;2023-02-15T13:45:00;101083.53;;;32.70;52.13
74230;BME280;62589;12.568;99.958;2023-02-15T13:47:59;101087.13;;;32.71;52.42
74230;BME280;62589;12.568;99.958;2023-02-15T13:54:04;101099.00;;;32.68;51.94
74230;BME280;62589;12.568;99.958;2023-02-15T13:57:01;101107.28;;;32.64;51.81
74230;BME280;62589;12.568;99.958;2023-02-15T14:03:10;101103.31;;;32.62;51.93
74230;BME280;62589;12.568;99.958;2023-02-15T14:08:45;101099.22;;;32.52;51.81
74230;BME280;62589;12.568;99.958;2023-02-15T14:11:44;101105.63;;;32.56;51.99
74230;BME280;62589;12.568;99.958;2023-02-15T14:17:29;101115.47;;;32.50;51.91
74230;BME280;62589;12.568;99.958;2023-02-15T14:20:22;101111.94;;;32.53;52.04
74230;BME280;62589;12.568;99.958;2023-02-15T14:23:07;101115.84;;;32.49;51.75
74230;BME280;62589;12.568;99.958;2023-02-15T14:25:45;101108.59;;;32.40;52.25
74230;BME280;62589;12.568;99.958;2023-02-15T14:28:36;101111.78;;;32.42;52.41
74230;BME280;62589;12.568;99.958;2023-02-15T14:31:10;101113.34;;;32.40;52.44
74230;BME280;62589;12.568;99.958;2023-02-15T14:33:40;101119.72;;;32.40;52.04